createdAt,value
2023-03-03T00:03:18.783Z,95028.84
2023-03-03T00:06:27.814Z,95025.56
2023-03-03T00:09:36.077Z,95019.75
2023-03-03T00:12:50.990Z,95020.72
2023-03-03T00:16:16.978Z,95024.56
2023-03-03T00:19:26.488Z,95024.22
2023-03-03T00:22:40.216Z,95026.13
2023-03-03T00:25:53.273Z,95030.50
2023-03-03T00:29:02.069Z,95027.69
2023-03-03T00:32:25.474Z,95024.09
2023-03-03T00:35:37.091Z,95026.28
2023-03-03T00:38:45.287Z,95032.41
2023-03-03T00:41:53.791Z,95028.56
2023-03-03T00:45:02.616Z,95027.09
2023-03-03T00:48:29.314Z,95024.56
2023-03-03T00:51:39.393Z,95023.34
2023-03-03T00:54:48.520Z,95022.19
2023-03-03T00:57:56.985Z,95022.91
2023-03-03T01:01:11.168Z,95024.09
2023-03-03T01:04:26.004Z,95025.38
2023-03-03T01:07:35.876Z,95022.03
2023-03-03T01:10:50.962Z,95033.53
2023-03-03T01:13:59.326Z,95035.53
2023-03-03T01:17:09.985Z,95027.50
2023-03-03T01:20:18.797Z,95026.47
2023-03-03T01:23:28.577Z,95022.09
2023-03-03T01:26:36.898Z,95024.50
2023-03-03T01:29:45.943Z,95017.41
2023-03-03T01:32:54.927Z,95015.06
2023-03-03T01:36:03.918Z,95017.59
2023-03-03T01:39:13.543Z,95014.09
2023-03-03T01:42:23.015Z,95013.28
2023-03-03T01:45:33.475Z,95009.41
2023-03-03T01:48:45.828Z,95009.59
2023-03-03T01:51:59.538Z,95014.31
2023-03-03T01:55:18.651Z,95003.53
2023-03-03T01:58:32.581Z,95004.28
2023-03-03T02:01:42.512Z,95004.84
2023-03-03T02:04:51.642Z,95002.31
2023-03-03T02:08:00.264Z,95016.09
2023-03-03T02:11:13.459Z,95001.09
2023-03-03T02:14:21.674Z,95011.22
2023-03-03T02:17:30.161Z,95007.22
2023-03-03T02:20:57.808Z,95012.44
2023-03-03T02:24:17.690Z,95013.50
2023-03-03T02:27:32.505Z,95012.09
2023-03-03T02:30:41.524Z,95014.97
2023-03-03T02:33:54.124Z,95016.00
2023-03-03T02:37:04.842Z,95008.78
2023-03-03T02:40:15.874Z,95002.97
2023-03-03T02:43:30.996Z,95011.88
2023-03-03T02:46:43.602Z,95006.22
2023-03-03T02:49:51.957Z,95001.22
2023-03-03T02:53:00.095Z,95003.41
2023-03-03T02:56:10.125Z,95002.91
2023-03-03T02:59:20.735Z,95015.94
2023-03-03T03:02:31.075Z,95010.44
2023-03-03T03:05:39.865Z,95006.94
2023-03-03T03:08:48.121Z,95007.03
2023-03-03T03:11:56.423Z,94995.75
2023-03-03T03:15:10.404Z,94997.69
2023-03-03T03:18:19.088Z,94993.34
2023-03-03T03:21:28.180Z,94993.69
2023-03-03T03:24:36.817Z,94997.25
2023-03-03T03:27:48.877Z,94992.03
2023-03-03T03:30:58.779Z,94998.09
2023-03-03T03:34:07.528Z,95001.41
2023-03-03T03:37:15.737Z,95002.22
2023-03-03T03:40:26.724Z,94997.84
2023-03-03T03:43:35.766Z,95005.56
2023-03-03T03:46:45.928Z,95010.94
2023-03-03T03:49:54.289Z,95002.84
2023-03-03T03:53:02.698Z,95002.94
2023-03-03T03:56:12.204Z,95013.25
2023-03-03T03:59:25.274Z,95013.75
2023-03-03T04:02:35.887Z,95012.56
2023-03-03T04:05:44.790Z,95010.59
2023-03-03T04:08:53.758Z,95004.19
2023-03-03T04:12:04.543Z,95012.44
2023-03-03T04:15:15.579Z,95001.94
2023-03-03T04:18:25.798Z,95005.44
2023-03-03T04:21:34.083Z,95007.16
2023-03-03T04:24:43.760Z,95019.94
2023-03-03T04:27:52.829Z,95008.63
2023-03-03T04:31:03.272Z,95006.03
2023-03-03T04:34:14.829Z,95011.84
2023-03-03T04:37:24.337Z,95013.06
2023-03-03T04:40:32.730Z,95017.47
2023-03-03T04:43:42.987Z,95008.22
2023-03-03T04:46:53.714Z,95010.19
2023-03-03T04:50:03.500Z,95010.75
2023-03-03T04:53:13.846Z,95013.22
2023-03-03T04:56:23.616Z,95011.16
2023-03-03T04:59:33.372Z,95011.28
2023-03-03T05:02:42.465Z,95007.19
2023-03-03T05:05:52.174Z,95006.88
2023-03-03T05:09:00.303Z,95011.47
2023-03-03T05:12:09.175Z,95016.31
2023-03-03T05:15:17.506Z,95015.19
2023-03-03T05:18:27.673Z,95018.09
2023-03-03T05:21:37.974Z,95016.75
2023-03-03T05:24:49.487Z,95021.97
2023-03-03T05:27:57.613Z,95010.81
2023-03-03T05:31:06.296Z,95013.44
2023-03-03T05:34:14.535Z,95015.78
2023-03-03T05:37:24.455Z,95023.91
2023-03-03T05:40:32.663Z,95021.56
2023-03-03T05:43:41.095Z,95026.13
2023-03-03T05:46:49.477Z,95022.53
2023-03-03T05:49:57.622Z,95025.16
2023-03-03T05:53:07.078Z,95026.00
2023-03-03T05:56:15.229Z,95039.75
2023-03-03T05:59:23.323Z,95044.59
2023-03-03T06:02:31.653Z,95034.25
2023-03-03T06:05:40.842Z,95035.09
2023-03-03T06:08:50.514Z,95052.16
2023-03-03T06:11:58.678Z,95047.75
2023-03-03T06:15:09.048Z,95048.84
2023-03-03T06:18:17.240Z,95051.91
2023-03-03T06:21:25.440Z,95053.00
2023-03-03T06:24:35.530Z,95051.19
2023-03-03T06:27:43.674Z,95054.78
2023-03-03T06:30:55.297Z,95057.66
2023-03-03T06:34:03.537Z,95055.03
2023-03-03T06:37:12.034Z,95063.16
2023-03-03T06:40:21.710Z,95071.16
2023-03-03T06:43:29.773Z,95064.69
2023-03-03T06:46:37.898Z,95065.78
2023-03-03T06:49:46.242Z,95077.41
2023-03-03T06:53:08.655Z,95077.25
2023-03-03T06:56:19.372Z,95079.19
2023-03-03T06:59:29.174Z,95082.91
2023-03-03T07:02:37.519Z,95089.22
2023-03-03T07:05:46.421Z,95084.50
2023-03-03T07:08:57.667Z,95080.63
2023-03-03T07:15:49.403Z,95097.00
2023-03-03T07:19:03.578Z,95091.47
2023-03-03T07:22:19.806Z,95103.88
2023-03-03T07:25:35.697Z,95103.31
2023-03-03T07:28:55.316Z,95098.63
2023-03-03T07:32:23.087Z,95105.22
2023-03-03T07:35:40.004Z,95105.22
2023-03-03T07:38:55.398Z,95113.66
2023-03-03T07:42:28.867Z,95108.94
2023-03-03T07:45:48.631Z,95112.38
2023-03-03T07:49:01.065Z,95123.97
2023-03-03T07:52:28.265Z,95131.44
2023-03-03T07:55:40.417Z,95129.66
2023-03-03T07:58:49.130Z,95134.47
2023-03-03T08:02:00.577Z,95128.25
2023-03-03T08:05:35.771Z,95133.91
2023-03-03T08:08:45.655Z,95127.22
2023-03-03T08:12:00.729Z,95134.34
2023-03-03T08:15:24.449Z,95142.75
2023-03-03T08:18:38.659Z,95141.00
2023-03-03T08:21:48.252Z,95129.44
2023-03-03T08:24:58.427Z,95132.06
2023-03-03T08:28:09.151Z,95136.56
2023-03-03T08:31:34.339Z,95137.94
2023-03-03T08:34:46.837Z,95136.34
2023-03-03T08:37:56.330Z,95141.75
2023-03-03T08:41:06.415Z,95131.50
2023-03-03T08:44:14.681Z,95131.91
2023-03-03T08:47:23.189Z,95131.81
2023-03-03T08:50:32.070Z,95137.38
2023-03-03T08:53:41.777Z,95131.03
2023-03-03T08:56:50.100Z,95132.34
2023-03-03T08:59:58.305Z,95136.53
2023-03-03T09:03:07.137Z,95136.63
2023-03-03T09:06:15.399Z,95133.41
2023-03-03T09:09:25.403Z,95142.25
2023-03-03T09:12:37.421Z,95147.16
2023-03-03T09:15:47.150Z,95153.38
2023-03-03T09:18:55.523Z,95152.38
2023-03-03T09:22:21.631Z,95159.19
2023-03-03T09:25:37.854Z,95162.00
2023-03-03T09:28:46.119Z,95151.91
2023-03-03T09:31:57.474Z,95157.03
2023-03-03T09:35:37.892Z,95160.72
2023-03-03T09:38:48.643Z,95160.34
2023-03-03T09:42:29.072Z,95164.75
2023-03-03T09:46:03.344Z,95167.19
2023-03-03T09:49:29.078Z,95176.03
2023-03-03T09:52:53.699Z,95184.00
2023-03-03T09:56:13.270Z,95187.97
2023-03-03T09:59:45.362Z,95186.53
2023-03-03T10:03:27.309Z,95182.50
2023-03-03T10:06:46.807Z,95185.56
2023-03-03T10:10:26.960Z,95183.16
2023-03-03T10:14:06.700Z,95186.16
2023-03-03T10:17:46.706Z,95190.69
2023-03-03T10:21:06.330Z,95189.69
2023-03-03T10:24:29.598Z,95198.34
2023-03-03T10:27:57.851Z,95192.84
2023-03-03T10:31:20.049Z,95193.63
2023-03-03T10:35:03.446Z,95198.97
2023-03-03T10:38:45.055Z,95201.72
2023-03-03T10:42:21.043Z,95197.66
2023-03-03T10:46:12.916Z,95199.63
2023-03-03T10:49:39.252Z,95203.06
2023-03-03T10:52:55.701Z,95197.47
2023-03-03T10:56:28.553Z,95192.97
2023-03-03T11:00:00.989Z,95193.88
2023-03-03T11:03:45.561Z,95186.91
2023-03-03T11:07:06.046Z,95196.53
2023-03-03T11:10:46.800Z,95195.50
2023-03-03T11:14:09.100Z,95195.91
2023-03-03T11:17:30.866Z,95206.47
2023-03-03T11:20:52.631Z,95197.94
2023-03-03T11:24:20.328Z,95199.34
2023-03-03T11:28:01.763Z,95197.47
2023-03-03T11:31:21.503Z,95201.72
2023-03-03T11:34:54.686Z,95199.91
2023-03-03T11:38:24.156Z,95195.56
2023-03-03T11:41:40.849Z,95198.56
2023-03-03T11:44:56.321Z,95193.94
2023-03-03T11:48:18.077Z,95191.31
2023-03-03T11:51:42.127Z,95188.03
2023-03-03T11:54:57.993Z,95177.28
2023-03-03T11:58:17.757Z,95176.28
2023-03-03T12:01:37.418Z,95168.88
2023-03-03T12:04:52.000Z,95167.19
2023-03-03T12:08:11.598Z,95160.91
2023-03-03T12:11:27.764Z,95152.91
2023-03-03T12:15:05.759Z,95153.44
2023-03-03T12:18:44.763Z,95150.44
2023-03-03T12:22:18.553Z,95153.19
2023-03-03T12:25:39.112Z,95146.63
2023-03-03T12:28:56.236Z,95140.28
2023-03-03T12:32:23.480Z,95146.84
2023-03-03T12:35:42.773Z,95151.78
2023-03-03T12:39:01.455Z,95156.13
2023-03-03T12:42:30.175Z,95158.19
2023-03-03T12:45:53.607Z,95147.59
2023-03-03T12:49:03.563Z,95148.22
2023-03-03T12:52:29.264Z,95150.25
2023-03-03T12:55:52.980Z,95142.66
2023-03-03T12:59:09.437Z,95139.53
2023-03-03T13:02:43.378Z,95142.19
2023-03-03T13:06:05.565Z,95134.03
2023-03-03T13:09:30.374Z,95141.38
2023-03-03T13:12:47.915Z,95143.84
2023-03-03T13:16:07.428Z,95147.97
2023-03-03T13:19:24.136Z,95144.69
2023-03-03T13:22:51.353Z,95148.84
2023-03-03T13:26:08.073Z,95146.59
2023-03-03T13:29:25.238Z,95142.81
2023-03-03T13:32:44.270Z,95144.59
2023-03-03T13:35:58.001Z,95135.44
2023-03-03T13:39:21.449Z,95133.34
2023-03-03T13:42:40.762Z,95135.56
2023-03-03T13:46:09.429Z,95135.88
2023-03-03T13:49:47.688Z,95129.63
2023-03-03T13:53:27.538Z,95125.31
2023-03-03T13:57:11.765Z,95118.88
2023-03-03T14:00:46.301Z,95117.63
2023-03-03T14:04:07.162Z,95108.97
2023-03-03T14:07:27.488Z,95120.88
2023-03-03T14:10:45.344Z,95113.25
2023-03-03T14:14:10.095Z,95111.72
2023-03-03T14:17:34.617Z,95114.84
2023-03-03T14:20:48.530Z,95103.06
2023-03-03T14:24:06.598Z,95097.53
2023-03-03T14:27:27.644Z,95093.56
2023-03-03T14:30:40.561Z,95102.88
2023-03-03T14:34:02.746Z,95099.13
2023-03-03T14:37:25.406Z,95094.78
2023-03-03T14:40:35.837Z,95098.22
2023-03-03T14:43:46.957Z,95093.75
2023-03-03T14:47:23.981Z,95093.69
2023-03-03T14:50:39.369Z,95100.06
2023-03-03T14:53:51.229Z,95094.06
2023-03-03T14:57:13.365Z,95092.69
2023-03-03T15:00:36.436Z,95093.25
2023-03-03T15:03:59.688Z,95104.91
2023-03-03T15:07:32.808Z,95093.25
2023-03-03T15:10:44.355Z,95095.75
2023-03-03T15:13:53.007Z,95096.28
2023-03-03T15:17:26.194Z,95091.97
2023-03-03T15:20:45.272Z,95092.31
2023-03-03T15:24:04.605Z,95084.22
2023-03-03T15:27:22.329Z,95092.41
2023-03-03T15:30:38.491Z,95091.16
2023-03-03T15:34:02.994Z,95101.50
2023-03-03T15:37:34.212Z,95100.19
2023-03-03T15:40:50.465Z,95097.88
2023-03-03T15:44:15.772Z,95098.16
2023-03-03T15:47:46.905Z,95100.75
2023-03-03T15:51:07.945Z,95102.47
2023-03-03T15:54:44.741Z,95097.06
2023-03-03T15:58:11.368Z,95102.00
2023-03-03T16:01:28.137Z,95106.72
2023-03-03T16:04:45.041Z,95106.94
2023-03-03T16:08:13.527Z,95110.84
2023-03-03T16:11:31.231Z,95108.63
2023-03-03T16:15:10.767Z,95114.63
2023-03-03T16:18:34.169Z,95111.50
2023-03-03T16:22:08.950Z,95116.56
2023-03-03T16:25:49.238Z,95118.63
2023-03-03T16:29:32.676Z,95127.56
2023-03-03T16:32:49.637Z,95128.75
2023-03-03T16:36:09.023Z,95126.66
2023-03-03T16:39:27.466Z,95133.50
2023-03-03T16:42:35.812Z,95137.13
2023-03-03T16:45:46.074Z,95140.25
2023-03-03T16:49:09.719Z,95144.09
2023-03-03T16:52:26.767Z,95148.22
2023-03-03T16:55:46.644Z,95141.47
2023-03-03T16:59:19.092Z,95151.19
2023-03-03T17:02:53.983Z,95158.47
2023-03-03T17:06:12.233Z,95160.28
2023-03-03T17:09:50.867Z,95168.88
2023-03-03T17:13:30.320Z,95157.31
2023-03-03T17:16:55.541Z,95162.59
2023-03-03T17:20:31.145Z,95159.72
2023-03-03T17:24:07.299Z,95165.66
2023-03-03T17:27:28.958Z,95171.47
2023-03-03T17:30:46.644Z,95177.38
2023-03-03T17:34:24.393Z,95183.09
2023-03-03T17:37:47.614Z,95191.16
2023-03-03T17:41:07.679Z,95192.41
2023-03-03T17:44:29.347Z,95193.03
2023-03-03T17:48:09.215Z,95200.19
2023-03-03T17:51:58.558Z,95198.28
2023-03-03T17:55:40.492Z,95207.69
2023-03-03T17:59:24.875Z,95215.34
2023-03-03T18:03:12.914Z,95208.84
2023-03-03T18:06:50.425Z,95213.34
2023-03-03T18:10:36.793Z,95220.16
2023-03-03T18:14:20.397Z,95222.38
2023-03-03T18:18:03.026Z,95226.78
2023-03-03T18:21:17.320Z,95233.41
2023-03-03T18:24:38.677Z,95231.09
2023-03-03T18:28:10.066Z,95226.84
2023-03-03T18:31:27.086Z,95234.31
2023-03-03T18:34:39.649Z,95238.78
2023-03-03T18:37:49.208Z,95246.34
2023-03-03T18:41:01.801Z,95238.31
2023-03-03T18:44:30.114Z,95241.59
2023-03-03T18:48:06.429Z,95238.41
2023-03-03T18:51:50.228Z,95242.19
2023-03-03T18:55:26.237Z,95240.50
2023-03-03T18:58:38.646Z,95246.97
2023-03-03T19:01:51.730Z,95243.75
2023-03-03T19:05:19.672Z,95250.69
2023-03-03T19:08:44.529Z,95252.13
2023-03-03T19:11:55.411Z,95248.19
2023-03-03T19:15:11.067Z,95256.38
2023-03-03T19:18:27.753Z,95255.81
2023-03-03T19:21:38.555Z,95266.88
2023-03-03T19:25:15.205Z,95271.75
2023-03-03T19:28:39.715Z,95267.88
2023-03-03T19:31:59.941Z,95276.59
2023-03-03T19:35:29.657Z,95270.22
2023-03-03T19:38:52.902Z,95264.69
2023-03-03T19:42:14.751Z,95277.41
2023-03-03T19:45:54.041Z,95280.59
2023-03-03T19:49:20.929Z,95278.22
2023-03-03T19:52:41.146Z,95284.69
2023-03-03T19:56:14.893Z,95276.97
2023-03-03T19:59:37.209Z,95278.03
2023-03-03T20:03:17.905Z,95280.34
2023-03-03T20:06:47.047Z,95276.88
2023-03-03T20:10:14.707Z,95281.16
2023-03-03T20:13:45.757Z,95287.66
2023-03-03T20:17:13.270Z,95285.81
2023-03-03T20:21:09.543Z,95287.66
2023-03-03T20:24:51.117Z,95282.28
2023-03-03T20:28:21.850Z,95288.81
2023-03-03T20:31:44.191Z,95285.41
2023-03-03T20:35:07.952Z,95290.25
2023-03-03T20:38:28.630Z,95291.94
2023-03-03T20:41:58.744Z,95292.44
2023-03-03T20:45:28.546Z,95295.03
2023-03-03T20:49:14.156Z,95291.84
2023-03-03T20:52:35.140Z,95295.56
2023-03-03T20:55:59.088Z,95299.09
2023-03-03T20:59:22.640Z,95296.75
2023-03-03T21:02:40.283Z,95300.50
2023-03-03T21:06:00.696Z,95294.72
2023-03-03T21:09:09.066Z,95296.34
2023-03-03T21:12:30.526Z,95307.16
2023-03-03T21:15:39.675Z,95299.28
2023-03-03T21:18:59.710Z,95302.94
2023-03-03T21:22:11.495Z,95294.53
2023-03-03T21:25:52.773Z,95301.72
2023-03-03T21:29:03.698Z,95295.84
2023-03-03T21:32:36.482Z,95301.94
2023-03-03T21:36:02.000Z,95300.22
2023-03-03T21:39:28.553Z,95298.41
2023-03-03T21:42:44.260Z,95305.94
2023-03-03T21:45:52.375Z,95300.41
2023-03-03T21:49:00.519Z,95301.97
2023-03-03T21:52:10.039Z,95299.78
2023-03-03T21:55:18.399Z,95303.09
2023-03-03T21:58:26.487Z,95304.66
2023-03-03T22:01:37.736Z,95300.38
2023-03-03T22:04:46.336Z,95296.50
2023-03-03T22:07:56.082Z,95300.41
2023-03-03T22:11:05.532Z,95306.59
2023-03-03T22:14:13.957Z,95296.09
2023-03-03T22:17:25.481Z,95297.38
2023-03-03T22:20:33.603Z,95298.13
2023-03-03T22:23:43.104Z,95301.63
2023-03-03T22:26:51.578Z,95302.28
2023-03-03T22:29:59.975Z,95308.44
2023-03-03T22:33:08.236Z,95306.50
2023-03-03T22:36:16.948Z,95309.47
2023-03-03T22:39:26.544Z,95313.03
2023-03-03T22:42:34.906Z,95308.28
2023-03-03T22:45:44.732Z,95308.16
2023-03-03T22:48:52.866Z,95312.09
2023-03-03T22:52:02.654Z,95306.16
2023-03-03T22:55:12.945Z,95308.69
2023-03-03T22:58:25.415Z,95312.41
2023-03-03T23:01:33.796Z,95304.66
2023-03-03T23:04:42.158Z,95305.13
2023-03-03T23:07:50.527Z,95309.22
2023-03-03T23:11:00.213Z,95316.25
2023-03-03T23:14:08.364Z,95310.34
2023-03-03T23:17:16.520Z,95305.88
2023-03-03T23:20:28.723Z,95309.44
2023-03-03T23:23:37.096Z,95307.84
2023-03-03T23:26:46.682Z,95305.19
2023-03-03T23:29:55.695Z,95306.44
2023-03-03T23:33:04.042Z,95311.88
2023-03-03T23:36:12.483Z,95306.75
2023-03-03T23:39:21.026Z,95304.41
2023-03-03T23:42:30.921Z,95304.84
2023-03-03T23:45:39.271Z,95307.91
2023-03-03T23:48:47.492Z,95310.56
2023-03-03T23:51:55.856Z,95311.31
2023-03-03T23:55:05.332Z,95305.53
2023-03-03T23:58:14.773Z,95310.16
